^^
Marion, Virginia Banner
 

Adwolf, VA. Station Historical Data
[ Providing Data Since 6/07/2007 ]
Station Historical Data
Daily Summary for August 12, 2017 Units:  Both    English   Metric
« Previous Day
Next Day »
Daily Weekly Monthly Yearly Custom
  High: Low: Average:
Temperature: 85.0 °F /  29.4 °C 66.5 °F /  19.2 °C 73.1 °F /  22.8 °C
Dew Point: 72.3 °F /  22.4 °C 64.8 °F /  18.2 °C 68 °F /  20 °C
Humidity: 95% 60% 85%
Wind Speed: 10.4mph /  16.7km/h - 1.6mph /  2.6km/h
Wind Gust: 10.4mph /  16.7km/h - -
Wind- - SW
Pressure: 30.11 in /  1019.5 hPa 29.94 in /  1013.8 hPa -
Precipitation: 0.01 in /  0.25 mm    
Historical Graphs
 
 
Tabular Data for August 12, 2017
Time Temperature Dew Point Pressure Wind Wind Speed Wind Gust Humidity Rainfall Rate (Hourly) solar Conditions
00:01 67.8 °F /  19.9 °C 66.0 °F /  18.9 °C 30.11in /  1019.5hPa Calm     94% 0.00in /  0mm WeatherDisplay:10.37 W/m2 RA
00:06 67.8 °F /  19.9 °C 66.0 °F /  18.9 °C 30.11in /  1019.5hPa Calm     94% 0.00in /  0mm WeatherDisplay:10.37 W/m2 RA
00:11 67.7 °F /  19.8 °C 65.9 °F /  18.8 °C 30.11in /  1019.5hPa Calm     94% 0.00in /  0mm WeatherDisplay:10.37 W/m2 OVC
00:16 67.7 °F /  19.8 °C 65.9 °F /  18.8 °C 30.11in /  1019.5hPa Calm     94% 0.00in /  0mm WeatherDisplay:10.37 W/m2 OVC
00:21 67.7 °F /  19.8 °C 65.9 °F /  18.8 °C 30.11in /  1019.5hPa Calm     94% 0.00in /  0mm WeatherDisplay:10.37 W/m2 OVC
00:26 67.7 °F /  19.8 °C 65.9 °F /  18.8 °C 30.11in /  1019.5hPa Calm     94% 0.00in /  0mm WeatherDisplay:10.37 W/m2 OVC
00:31 67.6 °F /  19.8 °C 65.8 °F /  18.8 °C 30.11in /  1019.5hPa Calm     94% 0.00in /  0mm WeatherDisplay:10.37 W/m2 OVC
00:36 67.6 °F /  19.8 °C 65.8 °F /  18.8 °C 30.10in /  1019.2hPa Calm     94% 0.00in /  0mm WeatherDisplay:10.37 W/m2 OVC
00:41 67.6 °F /  19.8 °C 65.8 °F /  18.8 °C 30.10in /  1019.2hPa Calm     94% 0.00in /  0mm WeatherDisplay:10.37 W/m2 OVC
00:46 67.5 °F /  19.7 °C 65.7 °F /  18.7 °C 30.10in /  1019.2hPa Calm     94% 0.00in /  0mm WeatherDisplay:10.37 W/m2 SCT
00:51 67.5 °F /  19.7 °C 65.7 °F /  18.7 °C 30.10in /  1019.2hPa Calm     94% 0.00in /  0mm WeatherDisplay:10.37 W/m2 SCT
00:56 67.4 °F /  19.7 °C 65.6 °F /  18.7 °C 30.10in /  1019.2hPa Calm     94% 0.00in /  0mm WeatherDisplay:10.37 W/m2 SCT
01:01 67.4 °F /  19.7 °C 65.6 °F /  18.7 °C 30.10in /  1019.2hPa Calm     94% 0.00in /  0mm WeatherDisplay:10.37 W/m2 SCT
01:06 67.4 °F /  19.7 °C 65.6 °F /  18.7 °C 30.10in /  1019.2hPa Calm     94% 0.00in /  0mm WeatherDisplay:10.37 W/m2 SCT
01:11 67.4 °F /  19.7 °C 65.6 °F /  18.7 °C 30.10in /  1019.2hPa Calm     94% 0.00in /  0mm WeatherDisplay:10.37 W/m2 SCT
01:16 67.4 °F /  19.7 °C 65.6 °F /  18.7 °C 30.10in /  1019.2hPa Calm     94% 0.00in /  0mm WeatherDisplay:10.37 W/m2 SCT
01:21 67.3 °F /  19.6 °C 65.5 °F /  18.6 °C 30.10in /  1019.2hPa Calm     94% 0.00in /  0mm WeatherDisplay:10.37 W/m2 SCT
01:26 67.3 °F /  19.6 °C 65.5 °F /  18.6 °C 30.10in /  1019.2hPa Calm     94% 0.00in /  0mm WeatherDisplay:10.37 W/m2 OVC
01:31 67.3 °F /  19.6 °C 65.5 °F /  18.6 °C 30.10in /  1019.2hPa Calm     94% 0.00in /  0mm WeatherDisplay:10.37 W/m2 OVC
01:36 67.3 °F /  19.6 °C 65.5 °F /  18.6 °C 30.10in /  1019.2hPa Calm     94% 0.00in /  0mm WeatherDisplay:10.37 W/m2 OVC
01:41 67.3 °F /  19.6 °C 65.5 °F /  18.6 °C 30.10in /  1019.2hPa Calm     94% 0.00in /  0mm WeatherDisplay:10.37 W/m2 OVC
01:46 67.4 °F /  19.7 °C 65.6 °F /  18.7 °C 30.09in /  1018.8hPa Calm     94% 0.00in /  0mm WeatherDisplay:10.37 W/m2 OVC
01:51 67.5 °F /  19.7 °C 65.7 °F /  18.7 °C 30.10in /  1019.2hPa Calm     94% 0.00in /  0mm WeatherDisplay:10.37 W/m2 OVC
01:56 67.5 °F /  19.7 °C 65.7 °F /  18.7 °C 30.09in /  1018.8hPa Calm     94% 0.00in /  0mm WeatherDisplay:10.37 W/m2 OVC
02:01 67.5 °F /  19.7 °C 66.0 °F /  18.9 °C 30.09in /  1018.8hPa Calm     95% 0.00in /  0mm WeatherDisplay:10.37 W/m2 OVC
02:06 67.5 °F /  19.7 °C 65.7 °F /  18.7 °C 30.09in /  1018.8hPa Calm     94% 0.00in /  0mm WeatherDisplay:10.37 W/m2 OVC
02:11 67.4 °F /  19.7 °C 65.6 °F /  18.7 °C 30.09in /  1018.8hPa Calm     94% 0.00in /  0mm WeatherDisplay:10.37 W/m2 OVC
02:16 67.3 °F /  19.6 °C 65.5 °F /  18.6 °C 30.08in /  1018.5hPa Calm     94% 0.00in /  0mm WeatherDisplay:10.37 W/m2 OVC
02:21 67.2 °F /  19.6 °C 65.4 °F /  18.6 °C 30.08in /  1018.5hPa Calm     94% 0.00in /  0mm WeatherDisplay:10.37 W/m2 OVC
02:26 67.1 °F /  19.5 °C 65.3 °F /  18.5 °C 30.08in /  1018.5hPa Calm     94% 0.00in /  0mm WeatherDisplay:10.37 W/m2 OVC
02:31 67.1 °F /  19.5 °C 65.3 °F /  18.5 °C 30.08in /  1018.5hPa Calm     94% 0.00in /  0mm WeatherDisplay:10.37 W/m2 OVC
02:36 67.0 °F /  19.4 °C 65.2 °F /  18.4 °C 30.08in /  1018.5hPa Calm     94% 0.00in /  0mm WeatherDisplay:10.37 W/m2 OVC
02:41 67.0 °F /  19.4 °C 65.2 °F /  18.4 °C 30.08in /  1018.5hPa Calm     94% 0.00in /  0mm WeatherDisplay:10.37 W/m2 OVC
02:46 67.0 °F /  19.4 °C 65.2 °F /  18.4 °C 30.08in /  1018.5hPa Calm     94% 0.00in /  0mm WeatherDisplay:10.37 W/m2 OVC
02:51 67.0 °F /  19.4 °C 65.2 °F /  18.4 °C 30.08in /  1018.5hPa Calm     94% 0.00in /  0mm WeatherDisplay:10.37 W/m2 OVC
02:56 67.0 °F /  19.4 °C 65.2 °F /  18.4 °C 30.08in /  1018.5hPa Calm     94% 0.00in /  0mm WeatherDisplay:10.37 W/m2 OVC
03:01 66.9 °F /  19.4 °C 65.1 °F /  18.4 °C 30.07in /  1018.2hPa Calm     94% 0.00in /  0mm WeatherDisplay:10.37 W/m2 OVC
03:06 66.8 °F /  19.3 °C 65.0 °F /  18.3 °C 30.07in /  1018.2hPa Calm     94% 0.00in /  0mm WeatherDisplay:10.37 W/m2 OVC
03:07 66.8 °F /  19.3 °C 65.0 °F /  18.3 °C 30.07in /  1018.2hPa Calm     94% 0.00in /  0mm WeatherDisplay:10.37 W/m2 OVC
03:12 66.8 °F /  19.3 °C 65.0 °F /  18.3 °C 30.08in /  1018.5hPa Calm     94% 0.00in /  0mm WeatherDisplay:10.37 W/m2 OVC
03:17 66.8 °F /  19.3 °C 65.0 °F /  18.3 °C 30.08in /  1018.5hPa Calm     94% 0.00in /  0mm WeatherDisplay:10.37 W/m2 OVC
03:22 66.8 °F /  19.3 °C 65.0 °F /  18.3 °C 30.08in /  1018.5hPa Calm     94% 0.00in /  0mm WeatherDisplay:10.37 W/m2 OVC
03:27 66.8 °F /  19.3 °C 65.0 °F /  18.3 °C 30.08in /  1018.5hPa Calm     94% 0.00in /  0mm WeatherDisplay:10.37 W/m2 OVC
03:32 66.9 °F /  19.4 °C 65.1 °F /  18.4 °C 30.08in /  1018.5hPa Calm     94% 0.00in /  0mm WeatherDisplay:10.37 W/m2 OVC
03:37 66.9 °F /  19.4 °C 65.1 °F /  18.4 °C 30.08in /  1018.5hPa Calm     94% 0.00in /  0mm WeatherDisplay:10.37 W/m2 OVC
03:42 66.8 °F /  19.3 °C 65.0 °F /  18.3 °C 30.08in /  1018.5hPa Calm     94% 0.00in /  0mm WeatherDisplay:10.37 W/m2 OVC
03:43 66.8 °F /  19.3 °C 65.0 °F /  18.3 °C 30.08in /  1018.5hPa Calm     94% 0.00in /  0mm WeatherDisplay:10.37 W/m2 OVC
03:48 66.8 °F /  19.3 °C 65.0 °F /  18.3 °C 30.08in /  1018.5hPa Calm     94% 0.00in /  0mm WeatherDisplay:10.37 W/m2 OVC
03:53 66.8 °F /  19.3 °C 65.0 °F /  18.3 °C 30.08in /  1018.5hPa Calm     94% 0.00in /  0mm WeatherDisplay:10.37 W/m2 OVC
03:58 66.8 °F /  19.3 °C 65.0 °F /  18.3 °C 30.07in /  1018.2hPa Calm     94% 0.00in /  0mm WeatherDisplay:10.37 W/m2 OVC
04:03 66.8 °F /  19.3 °C 65.0 °F /  18.3 °C 30.07in /  1018.2hPa Calm     94% 0.00in /  0mm WeatherDisplay:10.37 W/m2 OVC
04:05 66.8 °F /  19.3 °C 65.0 °F /  18.3 °C 30.07in /  1018.2hPa Calm     94% 0.00in /  0mm WeatherDisplay:10.37 W/m2 OVC
04:10 66.8 °F /  19.3 °C 65.0 °F /  18.3 °C 30.07in /  1018.2hPa Calm     94% 0.00in /  0mm WeatherDisplay:10.37 W/m2 OVC
04:15 66.7 °F /  19.3 °C 64.9 °F /  18.3 °C 30.07in /  1018.2hPa Calm     94% 0.00in /  0mm WeatherDisplay:10.37 W/m2 OVC
04:20 66.8 °F /  19.3 °C 65.0 °F /  18.3 °C 30.07in /  1018.2hPa Calm     94% 0.00in /  0mm WeatherDisplay:10.37 W/m2 OVC
04:25 66.7 °F /  19.3 °C 64.9 °F /  18.3 °C 30.07in /  1018.2hPa Calm     94% 0.00in /  0mm WeatherDisplay:10.37 W/m2 OVC
04:30 66.8 °F /  19.3 °C 65.0 °F /  18.3 °C 30.07in /  1018.2hPa Calm     94% 0.00in /  0mm WeatherDisplay:10.37 W/m2 OVC
04:35 66.9 °F /  19.4 °C 65.1 °F /  18.4 °C 30.07in /  1018.2hPa Calm     94% 0.00in /  0mm WeatherDisplay:10.37 W/m2 OVC
04:40 66.9 °F /  19.4 °C 65.1 °F /  18.4 °C 30.07in /  1018.2hPa Calm     94% 0.00in /  0mm WeatherDisplay:10.37 W/m2 OVC
04:45 66.8 °F /  19.3 °C 65.0 °F /  18.3 °C 30.07in /  1018.2hPa Calm     94% 0.00in /  0mm WeatherDisplay:10.37 W/m2 OVC
04:50 66.8 °F /  19.3 °C 65.0 °F /  18.3 °C 30.07in /  1018.2hPa Calm     94% 0.00in /  0mm WeatherDisplay:10.37 W/m2 OVC
04:55 66.7 °F /  19.3 °C 64.9 °F /  18.3 °C 30.07in /  1018.2hPa Calm     94% 0.00in /  0mm WeatherDisplay:10.37 W/m2 OVC
05:00 66.7 °F /  19.3 °C 64.9 °F /  18.3 °C 30.07in /  1018.2hPa Calm     94% 0.00in /  0mm WeatherDisplay:10.37 W/m2 OVC
05:05 66.6 °F /  19.2 °C 64.8 °F /  18.2 °C 30.07in /  1018.2hPa Calm     94% 0.00in /  0mm WeatherDisplay:10.37 W/m2 OVC
05:10 66.6 °F /  19.2 °C 64.8 °F /  18.2 °C 30.07in /  1018.2hPa Calm     94% 0.00in /  0mm WeatherDisplay:10.37 W/m2 OVC
05:15 66.6 °F /  19.2 °C 64.8 °F /  18.2 °C 30.07in /  1018.2hPa Calm     94% 0.00in /  0mm WeatherDisplay:10.37 W/m2 OVC
05:20 66.6 °F /  19.2 °C 65.1 °F /  18.4 °C 30.07in /  1018.2hPa Calm     95% 0.00in /  0mm WeatherDisplay:10.37 W/m2 OVC
05:25 66.5 °F /  19.2 °C 65.0 °F /  18.3 °C 30.07in /  1018.2hPa Calm     95% 0.00in /  0mm WeatherDisplay:10.37 W/m2 -DZ
05:30 66.5 °F /  19.2 °C 65.0 °F /  18.3 °C 30.07in /  1018.2hPa Calm     95% 0.00in /  0mm WeatherDisplay:10.37 W/m2 -DZ
05:35 66.5 °F /  19.2 °C 65.0 °F /  18.3 °C 30.07in /  1018.2hPa Calm     95% 0.00in /  0mm WeatherDisplay:10.37 W/m2 -DZ
05:40 66.5 °F /  19.2 °C 65.0 °F /  18.3 °C 30.07in /  1018.2hPa Calm     95% 0.00in /  0mm WeatherDisplay:10.37 W/m2 -DZ
05:45 66.5 °F /  19.2 °C 65.0 °F /  18.3 °C 30.08in /  1018.5hPa Calm     95% 0.00in /  0mm WeatherDisplay:10.37 W/m2 OVC
05:50 66.6 °F /  19.2 °C 65.1 °F /  18.4 °C 30.07in /  1018.2hPa Calm     95% 0.00in /  0mm WeatherDisplay:10.37 W/m2 OVC
05:55 66.6 °F /  19.2 °C 65.1 °F /  18.4 °C 30.08in /  1018.5hPa Calm     95% 0.00in /  0mm WeatherDisplay:10.37 W/m2 OVC
06:00 66.6 °F /  19.2 °C 65.1 °F /  18.4 °C 30.08in /  1018.5hPa Calm     95% 0.00in /  0mm WeatherDisplay:10.37 W/m2 OVC
06:05 66.6 °F /  19.2 °C 65.1 °F /  18.4 °C 30.08in /  1018.5hPa Calm     95% 0.00in /  0mm WeatherDisplay:10.37 W/m2 OVC
06:10 66.7 °F /  19.3 °C 65.2 °F /  18.4 °C 30.08in /  1018.5hPa Calm     95% 0.00in /  0mm WeatherDisplay:10.37 W/m2 OVC
06:15 66.7 °F /  19.3 °C 65.2 °F /  18.4 °C 30.08in /  1018.5hPa Calm     95% 0.00in /  0mm WeatherDisplay:10.37 W/m2 OVC
06:20 66.8 °F /  19.3 °C 65.3 °F /  18.5 °C 30.08in /  1018.5hPa Calm     95% 0.00in /  0mm WeatherDisplay:10.37 W/m2 OVC
06:25 66.9 °F /  19.4 °C 65.4 °F /  18.6 °C 30.08in /  1018.5hPa NE 2.3mph /  3.7km/h 2.3mph /  3.7km/h 95% 0.00in /  0mm WeatherDisplay:10.37 W/m2 OVC
06:30 66.9 °F /  19.4 °C 65.4 °F /  18.6 °C 30.08in /  1018.5hPa Calm     95% 0.00in /  0mm WeatherDisplay:10.37 W/m2 OVC
06:35 67.0 °F /  19.4 °C 65.5 °F /  18.6 °C 30.08in /  1018.5hPa Calm     95% 0.00in /  0mm WeatherDisplay:10.37 W/m2 OVC
06:40 67.0 °F /  19.4 °C 65.5 °F /  18.6 °C 30.09in /  1018.8hPa Calm     95% 0.00in /  0mm WeatherDisplay:10.37 W/m2 OVC
06:45 67.0 °F /  19.4 °C 65.5 °F /  18.6 °C 30.09in /  1018.8hPa Calm     95% 0.00in /  0mm WeatherDisplay:10.37 W/m2 OVC
06:50 66.9 °F /  19.4 °C 65.4 °F /  18.6 °C 30.08in /  1018.5hPa Calm     95% 0.00in /  0mm WeatherDisplay:10.37 W/m2 OVC
06:55 66.9 °F /  19.4 °C 65.4 °F /  18.6 °C 30.08in /  1018.5hPa Calm     95% 0.00in /  0mm WeatherDisplay:10.37 W/m2 OVC
07:00 66.9 °F /  19.4 °C 65.1 °F /  18.4 °C 30.08in /  1018.5hPa Calm     94% 0.00in /  0mm WeatherDisplay:10.37 W/m2 OVC
07:05 66.8 °F /  19.3 °C 65.0 °F /  18.3 °C 30.08in /  1018.5hPa Calm     94% 0.00in /  0mm WeatherDisplay:10.37 W/m2 OVC
07:10 66.9 °F /  19.4 °C 65.4 °F /  18.6 °C 30.08in /  1018.5hPa Calm     95% 0.00in /  0mm WeatherDisplay:10.37 W/m2 OVC
07:15 66.9 °F /  19.4 °C 65.4 °F /  18.6 °C 30.08in /  1018.5hPa Calm     95% 0.01in /  0.25mm WeatherDisplay:10.37 W/m2 RA
07:20 67.0 °F /  19.4 °C 65.5 °F /  18.6 °C 30.08in /  1018.5hPa Calm     95% 0.01in /  0.25mm WeatherDisplay:10.37 W/m2 RA
07:25 67.0 °F /  19.4 °C 65.5 °F /  18.6 °C 30.08in /  1018.5hPa Calm     95% 0.01in /  0.25mm WeatherDisplay:10.37 W/m2 OVC
07:30 67.0 °F /  19.4 °C 65.5 °F /  18.6 °C 30.08in /  1018.5hPa Calm     95% 0.01in /  0.25mm WeatherDisplay:10.37 W/m2 OVC
07:35 67.1 °F /  19.5 °C 65.6 °F /  18.7 °C 30.09in /  1018.8hPa Calm     95% 0.01in /  0.25mm WeatherDisplay:10.37 W/m2 OVC
07:40 67.1 °F /  19.5 °C 65.6 °F /  18.7 °C 30.08in /  1018.5hPa Calm     95% 0.01in /  0.25mm WeatherDisplay:10.37 W/m2 OVC
07:45 67.1 °F /  19.5 °C 65.6 °F /  18.7 °C 30.08in /  1018.5hPa Calm     95% 0.01in /  0.25mm WeatherDisplay:10.37 W/m2 OVC
07:50 67.1 °F /  19.5 °C 65.6 °F /  18.7 °C 30.09in /  1018.8hPa Calm     95% 0.01in /  0.25mm WeatherDisplay:10.37 W/m2 OVC
07:55 67.3 °F /  19.6 °C 65.8 °F /  18.8 °C 30.08in /  1018.5hPa Calm     95% 0.01in /  0.25mm WeatherDisplay:10.37 W/m2 OVC
07:56 67.3 °F /  19.6 °C 65.8 °F /  18.8 °C 30.09in /  1018.8hPa Calm     95% 0.01in /  0.25mm WeatherDisplay:10.37 W/m2 OVC
08:01 67.4 °F /  19.7 °C 65.9 °F /  18.8 °C 30.09in /  1018.8hPa Calm     95% 0.01in /  0.25mm WeatherDisplay:10.37 W/m2 OVC
08:06 67.5 °F /  19.7 °C 66.0 °F /  18.9 °C 30.09in /  1018.8hPa Calm     95% 0.01in /  0.25mm WeatherDisplay:10.37 W/m2 BKN
08:11 67.7 °F /  19.8 °C 66.2 °F /  19 °C 30.09in /  1018.8hPa Calm     95% 0.01in /  0.25mm WeatherDisplay:10.37 W/m2 BKN
08:16 67.8 °F /  19.9 °C 66.3 °F /  19.1 °C 30.09in /  1018.8hPa Calm     95% 0.00in /  0mm WeatherDisplay:10.37 W/m2 BKN
08:21 68.0 °F /  20 °C 66.2 °F /  19 °C 30.09in /  1018.8hPa Calm     94% 0.00in /  0mm WeatherDisplay:10.37 W/m2 BKN
08:26 68.3 °F /  20.2 °C 66.5 °F /  19.2 °C 30.09in /  1018.8hPa Calm     94% 0.00in /  0mm WeatherDisplay:10.37 W/m2 SCT
08:31 68.7 °F /  20.4 °C 67.2 °F /  19.6 °C 30.08in /  1018.5hPa Calm     95% 0.00in /  0mm WeatherDisplay:10.37 W/m2 SCT
08:36 68.8 °F /  20.4 °C 67.0 °F /  19.4 °C 30.08in /  1018.5hPa Calm     94% 0.00in /  0mm WeatherDisplay:10.37 W/m2 SCT
08:41 68.8 °F /  20.4 °C 67.0 °F /  19.4 °C 30.08in /  1018.5hPa Calm     94% 0.00in /  0mm WeatherDisplay:10.37 W/m2 SCT
08:46 68.8 °F /  20.4 °C 66.7 °F /  19.3 °C 30.08in /  1018.5hPa Calm     93% 0.00in /  0mm WeatherDisplay:10.37 W/m2 BKN
08:51 68.8 °F /  20.4 °C 66.7 °F /  19.3 °C 30.09in /  1018.8hPa Calm     93% 0.00in /  0mm WeatherDisplay:10.37 W/m2 BKN
08:56 68.8 °F /  20.4 °C 66.7 °F /  19.3 °C 30.08in /  1018.5hPa Calm     93% 0.00in /  0mm WeatherDisplay:10.37 W/m2 BKN
09:01 69.0 °F /  20.6 °C 66.9 °F /  19.4 °C 30.09in /  1018.8hPa Calm     93% 0.00in /  0mm WeatherDisplay:10.37 W/m2 BKN
09:06 69.2 °F /  20.7 °C 67.0 °F /  19.4 °C 30.09in /  1018.8hPa Calm     93% 0.00in /  0mm WeatherDisplay:10.37 W/m2 BKN
09:11 69.3 °F /  20.7 °C 67.1 °F /  19.5 °C 30.09in /  1018.8hPa Calm     93% 0.00in /  0mm WeatherDisplay:10.37 W/m2 BKN
09:16 69.6 °F /  20.9 °C 67.4 °F /  19.7 °C 30.09in /  1018.8hPa Calm     93% 0.00in /  0mm WeatherDisplay:10.37 W/m2 BKN
09:21 70.0 °F /  21.1 °C 67.8 °F /  19.9 °C 30.09in /  1018.8hPa Calm     93% 0.00in /  0mm WeatherDisplay:10.37 W/m2 BKN
09:26 70.4 °F /  21.3 °C 68.2 °F /  20.1 °C 30.09in /  1018.8hPa Calm     93% 0.00in /  0mm WeatherDisplay:10.37 W/m2 BKN
09:31 70.8 °F /  21.6 °C 68.6 °F /  20.3 °C 30.08in /  1018.5hPa NE 2.3mph /  3.7km/h 2.3mph /  3.7km/h 93% 0.00in /  0mm WeatherDisplay:10.37 W/m2 BKN
09:36 71.1 °F /  21.7 °C 68.3 °F /  20.2 °C 30.09in /  1018.8hPa SSE 3.5mph /  5.6km/h 3.5mph /  5.6km/h 91% 0.00in /  0mm WeatherDisplay:10.37 W/m2 BKN
09:41 71.2 °F /  21.8 °C 68.1 °F /  20.1 °C 30.09in /  1018.8hPa SSE 3.5mph /  5.6km/h 3.5mph /  5.6km/h 90% 0.00in /  0mm WeatherDisplay:10.37 W/m2 BKN
09:46 71.6 °F /  22 °C 69.1 °F /  20.6 °C 30.09in /  1018.8hPa SSE 1.2mph /  1.9km/h 1.2mph /  1.9km/h 92% 0.00in /  0mm WeatherDisplay:10.37 W/m2 OVC
09:51 72.0 °F /  22.2 °C 68.5 °F /  20.3 °C 30.09in /  1018.8hPa South 3.5mph /  5.6km/h 3.5mph /  5.6km/h 89% 0.00in /  0mm WeatherDisplay:10.37 W/m2 OVC
09:56 72.3 °F /  22.4 °C 68.8 °F /  20.4 °C 30.09in /  1018.8hPa South 3.5mph /  5.6km/h 3.5mph /  5.6km/h 89% 0.00in /  0mm WeatherDisplay:10.37 W/m2 OVC
10:01 72.5 °F /  22.5 °C 69.0 °F /  20.6 °C 30.09in /  1018.8hPa SW 3.5mph /  5.6km/h 3.5mph /  5.6km/h 89% 0.00in /  0mm WeatherDisplay:10.37 W/m2 OVC
10:06 72.6 °F /  22.6 °C 68.8 °F /  20.4 °C 30.09in /  1018.8hPa SW 2.3mph /  3.7km/h 2.3mph /  3.7km/h 88% 0.00in /  0mm WeatherDisplay:10.37 W/m2 OVC
10:11 72.9 °F /  22.7 °C 69.4 °F /  20.8 °C 30.09in /  1018.8hPa SW 3.5mph /  5.6km/h 3.5mph /  5.6km/h 89% 0.00in /  0mm WeatherDisplay:10.37 W/m2 OVC
10:16 73.2 °F /  22.9 °C 69.4 °F /  20.8 °C 30.08in /  1018.5hPa SSW 3.0mph /  4.8km/h 3.0mph /  4.8km/h 88% 0.00in /  0mm WeatherDisplay:10.37 W/m2 OVC
10:21 73.4 °F /  23 °C 69.3 °F /  20.7 °C 30.08in /  1018.5hPa SW 3.5mph /  5.6km/h 3.5mph /  5.6km/h 87% 0.00in /  0mm WeatherDisplay:10.37 W/m2 OVC
10:26 73.5 °F /  23.1 °C 69.7 °F /  20.9 °C 30.08in /  1018.5hPa SW 2.3mph /  3.7km/h 2.3mph /  3.7km/h 88% 0.00in /  0mm WeatherDisplay:10.37 W/m2 OVC
10:31 73.5 °F /  23.1 °C 69.0 °F /  20.6 °C 30.09in /  1018.8hPa SW 4.6mph /  7.4km/h 4.6mph /  7.4km/h 86% 0.00in /  0mm WeatherDisplay:10.37 W/m2 OVC
10:36 74.0 °F /  23.3 °C 70.2 °F /  21.2 °C 30.09in /  1018.8hPa SW 3.5mph /  5.6km/h 3.5mph /  5.6km/h 88% 0.00in /  0mm WeatherDisplay:10.37 W/m2 OVC
10:41 74.6 °F /  23.7 °C 69.8 °F /  21 °C 30.08in /  1018.5hPa WSW 3.5mph /  5.6km/h 3.5mph /  5.6km/h 85% 0.00in /  0mm WeatherDisplay:10.37 W/m2 OVC
10:46 75.0 °F /  23.9 °C 70.1 °F /  21.2 °C 30.09in /  1018.8hPa SSW 5.0mph /  8km/h 5.0mph /  8km/h 85% 0.00in /  0mm WeatherDisplay:10.37 W/m2 BKN
10:51 75.2 °F /  24 °C 70.0 °F /  21.1 °C 30.09in /  1018.8hPa SSE 3.5mph /  5.6km/h 3.5mph /  5.6km/h 84% 0.00in /  0mm WeatherDisplay:10.37 W/m2 BKN
10:56 75.3 °F /  24.1 °C 70.1 °F /  21.2 °C 30.09in /  1018.8hPa South 3.5mph /  5.6km/h 3.5mph /  5.6km/h 84% 0.00in /  0mm WeatherDisplay:10.37 W/m2 BKN
11:01 75.5 °F /  24.2 °C 70.3 °F /  21.3 °C 30.09in /  1018.8hPa South 3.5mph /  5.6km/h 3.5mph /  5.6km/h 84% 0.00in /  0mm WeatherDisplay:10.37 W/m2 BKN
11:06 75.7 °F /  24.3 °C 70.1 °F /  21.2 °C 30.09in /  1018.8hPa South 3.5mph /  5.6km/h 3.5mph /  5.6km/h 83% 0.00in /  0mm WeatherDisplay:10.37 W/m2 BKN
11:11 75.9 °F /  24.4 °C 70.3 °F /  21.3 °C 30.09in /  1018.8hPa South 3.5mph /  5.6km/h 3.5mph /  5.6km/h 83% 0.00in /  0mm WeatherDisplay:10.37 W/m2 BKN
11:16 76.0 °F /  24.4 °C 70.1 °F /  21.2 °C 30.08in /  1018.5hPa South 4.0mph /  6.4km/h 4.0mph /  6.4km/h 82% 0.00in /  0mm WeatherDisplay:10.37 W/m2 BKN
11:21 76.4 °F /  24.7 °C 70.1 °F /  21.2 °C 30.08in /  1018.5hPa NW 3.5mph /  5.6km/h 3.5mph /  5.6km/h 81% 0.00in /  0mm WeatherDisplay:10.37 W/m2 BKN
11:26 76.8 °F /  24.9 °C 70.5 °F /  21.4 °C 30.08in /  1018.5hPa SW 3.5mph /  5.6km/h 3.5mph /  5.6km/h 81% 0.00in /  0mm WeatherDisplay:10.37 W/m2 BKN
11:31 76.9 °F /  24.9 °C 69.8 °F /  21 °C 30.08in /  1018.5hPa WSW 2.0mph /  3.2km/h 4.0mph /  6.4km/h 79% 0.00in /  0mm WeatherDisplay:10.37 W/m2 BKN
11:36 77.0 °F /  25 °C 69.9 °F /  21.1 °C 30.08in /  1018.5hPa SSE 3.5mph /  5.6km/h 3.5mph /  5.6km/h 79% 0.00in /  0mm WeatherDisplay:10.37 W/m2 BKN
11:41 77.1 °F /  25.1 °C 70.0 °F /  21.1 °C 30.08in /  1018.5hPa SSW 3.5mph /  5.6km/h 3.5mph /  5.6km/h 79% 0.00in /  0mm WeatherDisplay:10.37 W/m2 BKN
11:46 76.9 °F /  24.9 °C 70.2 °F /  21.2 °C 30.08in /  1018.5hPa SW 3.5mph /  5.6km/h 3.5mph /  5.6km/h 80% 0.00in /  0mm WeatherDisplay:10.37 W/m2 BKN
11:51 76.9 °F /  24.9 °C 70.9 °F /  21.6 °C 30.07in /  1018.2hPa South 2.3mph /  3.7km/h 2.3mph /  3.7km/h 82% 0.00in /  0mm WeatherDisplay:10.37 W/m2 BKN
11:56 76.9 °F /  24.9 °C 70.2 °F /  21.2 °C 30.07in /  1018.2hPa South 3.5mph /  5.6km/h 3.5mph /  5.6km/h 80% 0.00in /  0mm WeatherDisplay:10.37 W/m2 BKN
12:01 76.9 °F /  24.9 °C 69.8 °F /  21 °C 30.07in /  1018.2hPa SW 3.5mph /  5.6km/h 3.5mph /  5.6km/h 79% 0.00in /  0mm WeatherDisplay:10.37 W/m2 BKN
12:06 77.0 °F /  25 °C 70.7 °F /  21.5 °C 30.07in /  1018.2hPa WSW 2.3mph /  3.7km/h 2.3mph /  3.7km/h 81% 0.00in /  0mm WeatherDisplay:10.37 W/m2 BKN
12:11 77.3 °F /  25.2 °C 70.2 °F /  21.2 °C 30.07in /  1018.2hPa South 2.3mph /  3.7km/h 2.3mph /  3.7km/h 79% 0.00in /  0mm WeatherDisplay:10.37 W/m2 BKN
12:16 77.5 °F /  25.3 °C 70.1 °F /  21.2 °C 30.07in /  1018.2hPa South 3.5mph /  5.6km/h 3.5mph /  5.6km/h 78% 0.00in /  0mm WeatherDisplay:10.37 W/m2 BKN
12:21 78.0 °F /  25.6 °C 70.2 °F /  21.2 °C 30.07in /  1018.2hPa SSW 3.5mph /  5.6km/h 3.5mph /  5.6km/h 77% 0.00in /  0mm WeatherDisplay:10.37 W/m2 BKN
12:26 78.6 °F /  25.9 °C 71.1 °F /  21.7 °C 30.08in /  1018.5hPa SW 3.5mph /  5.6km/h 3.5mph /  5.6km/h 78% 0.00in /  0mm WeatherDisplay:10.37 W/m2 OVC
12:31 79.3 °F /  26.3 °C 71.0 °F /  21.7 °C 30.07in /  1018.2hPa SSW 3.5mph /  5.6km/h 3.5mph /  5.6km/h 76% 0.00in /  0mm WeatherDisplay:10.37 W/m2 OVC
12:36 80.0 °F /  26.7 °C 70.5 °F /  21.4 °C 30.07in /  1018.2hPa South 3.5mph /  5.6km/h 3.5mph /  5.6km/h 73% 0.00in /  0mm WeatherDisplay:10.37 W/m2 OVC
12:41 79.8 °F /  26.6 °C 71.1 °F /  21.7 °C 30.07in /  1018.2hPa SW 3.5mph /  5.6km/h 3.5mph /  5.6km/h 75% 0.00in /  0mm WeatherDisplay:10.37 W/m2 OVC
12:46 79.5 °F /  26.4 °C 70.0 °F /  21.1 °C 30.07in /  1018.2hPa SW 3.5mph /  5.6km/h 3.5mph /  5.6km/h 73% 0.00in /  0mm WeatherDisplay:10.37 W/m2 BKN
12:51 79.6 °F /  26.4 °C 70.9 °F /  21.6 °C 30.07in /  1018.2hPa SSW 3.0mph /  4.8km/h 3.0mph /  4.8km/h 75% 0.00in /  0mm WeatherDisplay:10.37 W/m2 BKN
12:56 79.3 °F /  26.3 °C 70.3 °F /  21.3 °C 30.07in /  1018.2hPa SW 3.5mph /  5.6km/h 3.5mph /  5.6km/h 74% 0.00in /  0mm WeatherDisplay:10.37 W/m2 BKN
13:01 79.3 °F /  26.3 °C 71.0 °F /  21.7 °C 30.07in /  1018.2hPa SSW 3.5mph /  5.6km/h 3.5mph /  5.6km/h 76% 0.00in /  0mm WeatherDisplay:10.37 W/m2 BKN
13:06 79.3 °F /  26.3 °C 69.9 °F /  21.1 °C 30.07in /  1018.2hPa SW 4.6mph /  7.4km/h 4.6mph /  7.4km/h 73% 0.00in /  0mm WeatherDisplay:10.37 W/m2 BKN
13:11 79.1 °F /  26.2 °C 70.1 °F /  21.2 °C 30.07in /  1018.2hPa SSW 3.5mph /  5.6km/h 3.5mph /  5.6km/h 74% 0.00in /  0mm WeatherDisplay:10.37 W/m2 BKN
13:16 79.0 °F /  26.1 °C 70.4 °F /  21.3 °C 30.07in /  1018.2hPa SSW 3.5mph /  5.6km/h 3.5mph /  5.6km/h 75% 0.00in /  0mm WeatherDisplay:10.37 W/m2 BKN
13:21 79.0 °F /  26.1 °C 70.4 °F /  21.3 °C 30.07in /  1018.2hPa SW 3.5mph /  5.6km/h 3.5mph /  5.6km/h 75% 0.00in /  0mm WeatherDisplay:10.37 W/m2 BKN
13:26 78.9 °F /  26.1 °C 70.3 °F /  21.3 °C 30.06in /  1017.8hPa SSW 3.5mph /  5.6km/h 3.5mph /  5.6km/h 75% 0.00in /  0mm WeatherDisplay:10.37 W/m2 OVC
13:31 79.3 °F /  26.3 °C 71.4 °F /  21.9 °C 30.07in /  1018.2hPa SSW 4.0mph /  6.4km/h 4.0mph /  6.4km/h 77% 0.00in /  0mm WeatherDisplay:10.37 W/m2 OVC
13:36 79.8 °F /  26.6 °C 70.7 °F /  21.5 °C 30.07in /  1018.2hPa South 3.5mph /  5.6km/h 3.5mph /  5.6km/h 74% 0.00in /  0mm WeatherDisplay:10.37 W/m2 OVC
13:41 79.8 °F /  26.6 °C 70.3 °F /  21.3 °C 30.07in /  1018.2hPa SW 4.6mph /  7.4km/h 4.6mph /  7.4km/h 73% 0.00in /  0mm WeatherDisplay:10.37 W/m2 OVC
13:46 79.7 °F /  26.5 °C 70.2 °F /  21.2 °C 30.07in /  1018.2hPa South 3.5mph /  5.6km/h 3.5mph /  5.6km/h 73% 0.00in /  0mm WeatherDisplay:10.37 W/m2 OVC
13:51 80.2 °F /  26.8 °C 69.9 °F /  21.1 °C 30.06in /  1017.8hPa SSE 4.6mph /  7.4km/h 4.6mph /  7.4km/h 71% 0.00in /  0mm WeatherDisplay:10.37 W/m2 OVC
13:56 80.9 °F /  27.2 °C 70.2 °F /  21.2 °C 30.06in /  1017.8hPa SW 5.8mph /  9.3km/h 5.8mph /  9.3km/h 70% 0.00in /  0mm WeatherDisplay:10.37 W/m2 OVC
14:01 81.1 °F /  27.3 °C 70.3 °F /  21.3 °C 30.06in /  1017.8hPa West 4.0mph /  6.4km/h 4.0mph /  6.4km/h 70% 0.00in /  0mm WeatherDisplay:10.37 W/m2 OVC
14:06 81.6 °F /  27.6 °C 70.0 °F /  21.1 °C 30.06in /  1017.8hPa SE 5.8mph /  9.3km/h 5.8mph /  9.3km/h 68% 0.00in /  0mm WeatherDisplay:10.37 W/m2 BKN
14:11 82.3 °F /  27.9 °C 70.2 °F /  21.2 °C 30.06in /  1017.8hPa SW 5.8mph /  9.3km/h 5.8mph /  9.3km/h 67% 0.00in /  0mm WeatherDisplay:10.37 W/m2 BKN
14:16 82.1 °F /  27.8 °C 70.9 °F /  21.6 °C 30.06in /  1017.8hPa NNW 5.8mph /  9.3km/h 5.8mph /  9.3km/h 69% 0.00in /  0mm WeatherDisplay:10.37 W/m2 BKN
14:21 82.7 °F /  28.2 °C 71.5 °F /  21.9 °C 30.05in /  1017.5hPa SW 3.5mph /  5.6km/h 3.5mph /  5.6km/h 69% 0.00in /  0mm WeatherDisplay:10.37 W/m2 BKN
14:26 83.6 °F /  28.7 °C 70.5 °F /  21.4 °C 30.05in /  1017.5hPa SSE 3.5mph /  5.6km/h 3.5mph /  5.6km/h 65% 0.00in /  0mm WeatherDisplay:10.37 W/m2 BKN
14:31 85.0 °F /  29.4 °C 72.3 °F /  22.4 °C 30.05in /  1017.5hPa SW 2.3mph /  3.7km/h 2.3mph /  3.7km/h 66% 0.00in /  0mm WeatherDisplay:10.37 W/m2 BKN
14:36 84.9 °F /  29.4 °C 70.4 °F /  21.3 °C 30.04in /  1017.2hPa SSW 4.0mph /  6.4km/h 4.0mph /  6.4km/h 62% 0.00in /  0mm WeatherDisplay:10.37 W/m2 BKN
14:41 84.3 °F /  29.1 °C 68.9 °F /  20.5 °C 30.04in /  1017.2hPa NW 4.6mph /  7.4km/h 4.6mph /  7.4km/h 60% 0.00in /  0mm WeatherDisplay:10.37 W/m2 BKN
14:46 84.2 °F /  29 °C 69.7 °F /  20.9 °C 30.04in /  1017.2hPa SE 3.5mph /  5.6km/h 3.5mph /  5.6km/h 62% 0.00in /  0mm WeatherDisplay:10.37 W/m2 BKN
14:51 84.7 °F /  29.3 °C 69.2 °F /  20.7 °C 30.04in /  1017.2hPa West 5.8mph /  9.3km/h 5.8mph /  9.3km/h 60% 0.00in /  0mm WeatherDisplay:10.37 W/m2 BKN
14:56 84.5 °F /  29.2 °C 69.1 °F /  20.6 °C 30.04in /  1017.2hPa SW 6.0mph /  9.7km/h 6.0mph /  9.7km/h 60% 0.00in /  0mm WeatherDisplay:10.37 W/m2 BKN
15:01 84.1 °F /  28.9 °C 69.6 °F /  20.9 °C 30.04in /  1017.2hPa WSW 5.8mph /  9.3km/h 5.8mph /  9.3km/h 62% 0.00in /  0mm WeatherDisplay:10.37 W/m2 BKN
15:06 84.1 °F /  28.9 °C 69.2 °F /  20.7 °C 30.04in /  1017.2hPa NNW 3.5mph /  5.6km/h 3.5mph /  5.6km/h 61% 0.00in /  0mm WeatherDisplay:10.37 W/m2 SCT
15:11 84.4 °F /  29.1 °C 69.4 °F /  20.8 °C 30.04in /  1017.2hPa NW 2.3mph /  3.7km/h 2.3mph /  3.7km/h 61% 0.00in /  0mm WeatherDisplay:10.37 W/m2 SCT
15:16 84.8 °F /  29.3 °C 69.3 °F /  20.7 °C 30.04in /  1017.2hPa West 9.2mph /  14.8km/h 9.2mph /  14.8km/h 60% 0.00in /  0mm WeatherDisplay:10.37 W/m2 SCT
15:21 84.7 °F /  29.3 °C 69.2 °F /  20.7 °C 30.03in /  1016.8hPa SSW 3.5mph /  5.6km/h 3.5mph /  5.6km/h 60% 0.00in /  0mm WeatherDisplay:10.37 W/m2 SCT
15:26 84.3 °F /  29.1 °C 68.9 °F /  20.5 °C 30.03in /  1016.8hPa SW 2.3mph /  3.7km/h 2.3mph /  3.7km/h 60% 0.00in /  0mm WeatherDisplay:10.37 W/m2 SCT
15:31 84.3 °F /  29.1 °C 69.3 °F /  20.7 °C 30.03in /  1016.8hPa North 3.0mph /  4.8km/h 3.0mph /  4.8km/h 61% 0.00in /  0mm WeatherDisplay:10.37 W/m2 SCT
15:36 84.1 °F /  28.9 °C 69.2 °F /  20.7 °C 30.03in /  1016.8hPa WNW 3.5mph /  5.6km/h 3.5mph /  5.6km/h 61% 0.00in /  0mm WeatherDisplay:10.37 W/m2 SCT
15:41 83.8 °F /  28.8 °C 70.7 °F /  21.5 °C 30.03in /  1016.8hPa NW 3.5mph /  5.6km/h 3.5mph /  5.6km/h 65% 0.00in /  0mm WeatherDisplay:10.37 W/m2 SCT
15:46 83.0 °F /  28.3 °C 70.9 °F /  21.6 °C 30.03in /  1016.8hPa NNW 6.9mph /  11.1km/h 6.9mph /  11.1km/h 67% 0.00in /  0mm WeatherDisplay:10.37 W/m2 OVC
15:51 81.6 °F /  27.6 °C 71.2 °F /  21.8 °C 30.03in /  1016.8hPa WNW 6.9mph /  11.1km/h 6.9mph /  11.1km/h 71% 0.00in /  0mm WeatherDisplay:10.37 W/m2 OVC
15:56 80.3 °F /  26.8 °C 71.2 °F /  21.8 °C 30.03in /  1016.8hPa North 10.4mph /  16.7km/h 10.4mph /  16.7km/h 74% 0.00in /  0mm WeatherDisplay:10.37 W/m2 OVC
16:01 79.6 °F /  26.4 °C 71.7 °F /  22.1 °C 30.03in /  1016.8hPa North 10.4mph /  16.7km/h 10.4mph /  16.7km/h 77% 0.00in /  0mm WeatherDisplay:10.37 W/m2 OVC
16:06 79.1 °F /  26.2 °C 71.6 °F /  22 °C 30.03in /  1016.8hPa NNE 8.0mph /  12.9km/h 8.0mph /  12.9km/h 78% 0.00in /  0mm WeatherDisplay:10.37 W/m2 OVC
16:11 78.4 °F /  25.8 °C 71.7 °F /  22.1 °C 30.04in /  1017.2hPa West 9.2mph /  14.8km/h 9.2mph /  14.8km/h 80% 0.00in /  0mm WeatherDisplay:10.37 W/m2 OVC
16:16 77.9 °F /  25.5 °C 71.2 °F /  21.8 °C 30.04in /  1017.2hPa WNW 3.5mph /  5.6km/h 3.5mph /  5.6km/h 80% 0.00in /  0mm WeatherDisplay:10.37 W/m2 OVC
16:21 77.7 °F /  25.4 °C 68.3 °F /  20.2 °C 30.04in /  1017.2hPa WNW 8.1mph /  13km/h 8.1mph /  13km/h 73% 0.00in /  0mm WeatherDisplay:10.37 W/m2 OVC
16:26 77.3 °F /  25.2 °C 68.3 °F /  20.2 °C 30.03in /  1016.8hPa NNE 5.8mph /  9.3km/h 5.8mph /  9.3km/h 74% 0.00in /  0mm WeatherDisplay:10.37 W/m2 OVC
16:31 76.9 °F /  24.9 °C 67.9 °F /  19.9 °C 30.03in /  1016.8hPa North 3.5mph /  5.6km/h 3.5mph /  5.6km/h 74% 0.00in /  0mm WeatherDisplay:10.37 W/m2 OVC
16:36 77.3 °F /  25.2 °C 67.9 °F /  19.9 °C 30.03in /  1016.8hPa NNE 4.6mph /  7.4km/h 4.6mph /  7.4km/h 73% 0.00in /  0mm WeatherDisplay:10.37 W/m2 OVC
16:41 77.8 °F /  25.4 °C 68.0 °F /  20 °C 30.03in /  1016.8hPa NNE 4.6mph /  7.4km/h 4.6mph /  7.4km/h 72% 0.00in /  0mm WeatherDisplay:10.37 W/m2 OVC
16:46 79.0 °F /  26.1 °C 68.3 °F /  20.2 °C 30.03in /  1016.8hPa North 3.5mph /  5.6km/h 3.5mph /  5.6km/h 70% 0.00in /  0mm WeatherDisplay:10.37 W/m2 OVC
16:51 79.7 °F /  26.5 °C 68.2 °F /  20.1 °C 30.03in /  1016.8hPa NNE 3.5mph /  5.6km/h 3.5mph /  5.6km/h 68% 0.00in /  0mm WeatherDisplay:10.37 W/m2 OVC
16:56 80.4 °F /  26.9 °C 69.3 °F /  20.7 °C 30.02in /  1016.5hPa West 3.5mph /  5.6km/h 3.5mph /  5.6km/h 69% 0.00in /  0mm WeatherDisplay:10.37 W/m2 OVC
17:01 81.2 °F /  27.3 °C 66.9 °F /  19.4 °C 30.02in /  1016.5hPa North 2.3mph /  3.7km/h 2.3mph /  3.7km/h 62% 0.00in /  0mm WeatherDisplay:10.37 W/m2 OVC
17:06 81.4 °F /  27.4 °C 67.6 °F /  19.8 °C 30.02in /  1016.5hPa NNE 3.5mph /  5.6km/h 3.5mph /  5.6km/h 63% 0.00in /  0mm WeatherDisplay:10.37 W/m2 OVC
17:11 81.0 °F /  27.2 °C 68.5 °F /  20.3 °C 30.02in /  1016.5hPa WNW 3.5mph /  5.6km/h 3.5mph /  5.6km/h 66% 0.00in /  0mm WeatherDisplay:10.37 W/m2 OVC
17:16 80.7 °F /  27.1 °C 69.5 °F /  20.8 °C 30.02in /  1016.5hPa North 3.5mph /  5.6km/h 3.5mph /  5.6km/h 69% 0.00in /  0mm WeatherDisplay:10.37 W/m2 OVC
17:21 80.6 °F /  27 °C 70.3 °F /  21.3 °C 30.02in /  1016.5hPa North 3.5mph /  5.6km/h 3.5mph /  5.6km/h 71% 0.00in /  0mm WeatherDisplay:10.37 W/m2 OVC
17:26 80.2 °F /  26.8 °C 69.9 °F /  21.1 °C 30.02in /  1016.5hPa West 3.5mph /  5.6km/h 3.5mph /  5.6km/h 71% 0.00in /  0mm WeatherDisplay:10.37 W/m2 OVC
17:31 79.6 °F /  26.4 °C 70.1 °F /  21.2 °C 30.02in /  1016.5hPa NNE 4.0mph /  6.4km/h 4.0mph /  6.4km/h 73% 0.00in /  0mm WeatherDisplay:10.37 W/m2 OVC
17:36 79.3 °F /  26.3 °C 70.3 °F /  21.3 °C 30.02in /  1016.5hPa NNW 3.5mph /  5.6km/h 3.5mph /  5.6km/h 74% 0.00in /  0mm WeatherDisplay:10.37 W/m2 OVC
17:41 79.1 °F /  26.2 °C 70.5 °F /  21.4 °C 30.03in /  1016.8hPa NNW 2.3mph /  3.7km/h 2.3mph /  3.7km/h 75% 0.00in /  0mm WeatherDisplay:10.37 W/m2 BKN
17:46 79.1 °F /  26.2 °C 70.1 °F /  21.2 °C 30.02in /  1016.5hPa WNW 1.2mph /  1.9km/h 1.2mph /  1.9km/h 74% 0.00in /  0mm WeatherDisplay:10.37 W/m2 BKN
17:51 79.0 °F /  26.1 °C 70.4 °F /  21.3 °C 30.02in /  1016.5hPa NNW 2.3mph /  3.7km/h 2.3mph /  3.7km/h 75% 0.00in /  0mm WeatherDisplay:10.37 W/m2 BKN
17:56 79.0 °F /  26.1 °C 70.0 °F /  21.1 °C 30.02in /  1016.5hPa NNW 2.3mph /  3.7km/h 2.3mph /  3.7km/h 74% 0.00in /  0mm WeatherDisplay:10.37 W/m2 BKN
18:01 78.9 °F /  26.1 °C 69.9 °F /  21.1 °C 30.02in /  1016.5hPa North 3.5mph /  5.6km/h 3.5mph /  5.6km/h 74% 0.00in /  0mm WeatherDisplay:10.37 W/m2 BKN
18:06 78.9 °F /  26.1 °C 69.9 °F /  21.1 °C 30.02in /  1016.5hPa North 1.2mph /  1.9km/h 1.2mph /  1.9km/h 74% 0.00in /  0mm WeatherDisplay:10.37 W/m2 CLR
18:11 78.9 °F /  26.1 °C 70.3 °F /  21.3 °C 30.02in /  1016.5hPa NW 2.3mph /  3.7km/h 2.3mph /  3.7km/h 75% 0.00in /  0mm WeatherDisplay:10.37 W/m2 CLR
18:16 78.8 °F /  26 °C 69.4 °F /  20.8 °C 30.02in /  1016.5hPa NW 2.3mph /  3.7km/h 2.3mph /  3.7km/h 73% 0.00in /  0mm WeatherDisplay:10.37 W/m2 CLR
18:21 78.8 °F /  26 °C 69.4 °F /  20.8 °C 30.02in /  1016.5hPa NW 2.3mph /  3.7km/h 2.3mph /  3.7km/h 73% 0.00in /  0mm WeatherDisplay:10.37 W/m2 BKN
18:26 78.8 °F /  26 °C 69.4 °F /  20.8 °C 30.02in /  1016.5hPa NW 1.2mph /  1.9km/h 1.2mph /  1.9km/h 73% 0.00in /  0mm WeatherDisplay:10.37 W/m2 BKN
18:31 78.9 °F /  26.1 °C 69.9 °F /  21.1 °C 30.02in /  1016.5hPa NW 1.0mph /  1.6km/h   74% 0.00in /  0mm WeatherDisplay:10.37 W/m2 BKN
18:36 78.8 °F /  26 °C 69.4 °F /  20.8 °C 30.02in /  1016.5hPa NW 2.3mph /  3.7km/h 2.3mph /  3.7km/h 73% 0.00in /  0mm WeatherDisplay:10.37 W/m2 BKN
18:41 78.5 °F /  25.8 °C 69.5 °F /  20.8 °C 30.02in /  1016.5hPa NW 2.3mph /  3.7km/h 2.3mph /  3.7km/h 74% 0.00in /  0mm WeatherDisplay:10.37 W/m2 BKN
18:46 78.3 °F /  25.7 °C 69.7 °F /  20.9 °C 30.02in /  1016.5hPa NW 1.2mph /  1.9km/h 1.2mph /  1.9km/h 75% 0.00in /  0mm WeatherDisplay:10.37 W/m2 OVC
18:51 78.1 °F /  25.6 °C 69.5 °F /  20.8 °C 30.02in /  1016.5hPa NW 2.3mph /  3.7km/h 2.3mph /  3.7km/h 75% 0.00in /  0mm WeatherDisplay:10.37 W/m2 OVC
18:56 77.9 °F /  25.5 °C 69.7 °F /  20.9 °C 30.02in /  1016.5hPa NW 2.3mph /  3.7km/h 2.3mph /  3.7km/h 76% 0.00in /  0mm WeatherDisplay:10.37 W/m2 OVC
19:01 77.9 °F /  25.5 °C 70.1 °F /  21.2 °C 30.02in /  1016.5hPa NW 1.2mph /  1.9km/h 1.2mph /  1.9km/h 77% 0.00in /  0mm WeatherDisplay:10.37 W/m2 OVC
19:06 77.8 °F /  25.4 °C 70.3 °F /  21.3 °C 30.02in /  1016.5hPa NW 2.3mph /  3.7km/h 2.3mph /  3.7km/h 78% 0.00in /  0mm WeatherDisplay:10.37 W/m2 OVC
19:11 77.6 °F /  25.3 °C 70.2 °F /  21.2 °C 30.02in /  1016.5hPa NW 1.2mph /  1.9km/h 1.2mph /  1.9km/h 78% 0.00in /  0mm WeatherDisplay:10.37 W/m2 OVC
19:16 77.4 °F /  25.2 °C 70.0 °F /  21.1 °C 30.02in /  1016.5hPa WSW 3.0mph /  4.8km/h 3.0mph /  4.8km/h 78% 0.00in /  0mm WeatherDisplay:10.37 W/m2 OVC
19:21 77.2 °F /  25.1 °C 70.1 °F /  21.2 °C 30.03in /  1016.8hPa Calm     79% 0.00in /  0mm WeatherDisplay:10.37 W/m2 OVC
19:26 77.1 °F /  25.1 °C 70.0 °F /  21.1 °C 30.03in /  1016.8hPa WSW 1.2mph /  1.9km/h 1.2mph /  1.9km/h 79% 0.00in /  0mm WeatherDisplay:10.37 W/m2 OVC
19:31 76.9 °F /  24.9 °C 69.5 °F /  20.8 °C 30.03in /  1016.8hPa Calm     78% 0.00in /  0mm WeatherDisplay:10.37 W/m2 OVC
19:32 76.9 °F /  24.9 °C 69.5 °F /  20.8 °C 30.03in /  1016.8hPa Calm     78% 0.00in /  0mm WeatherDisplay:10.37 W/m2 OVC
19:37 76.8 °F /  24.9 °C 69.8 °F /  21 °C 30.03in /  1016.8hPa WSW 1.2mph /  1.9km/h 1.2mph /  1.9km/h 79% 0.00in /  0mm WeatherDisplay:10.37 W/m2 OVC
19:42 76.7 °F /  24.8 °C 70.0 °F /  21.1 °C 30.03in /  1016.8hPa WSW 1.2mph /  1.9km/h 1.2mph /  1.9km/h 80% 0.00in /  0mm WeatherDisplay:10.37 W/m2 OVC
19:47 76.6 °F /  24.8 °C 70.3 °F /  21.3 °C 30.03in /  1016.8hPa Calm   0.1mph /  0.2km/h 81% 0.00in /  0mm WeatherDisplay:10.37 W/m2 BKN
19:52 76.4 °F /  24.7 °C 70.5 °F /  21.4 °C 30.03in /  1016.8hPa WSW 1.2mph /  1.9km/h 1.2mph /  1.9km/h 82% 0.00in /  0mm WeatherDisplay:10.37 W/m2 BKN
19:57 76.1 °F /  24.5 °C 70.2 °F /  21.2 °C 30.03in /  1016.8hPa WSW 1.2mph /  1.9km/h 1.2mph /  1.9km/h 82% 0.00in /  0mm WeatherDisplay:10.37 W/m2 BKN
20:02 75.9 °F /  24.4 °C 70.0 °F /  21.1 °C 30.03in /  1016.8hPa WSW 3.5mph /  5.6km/h 3.5mph /  5.6km/h 82% 0.00in /  0mm WeatherDisplay:10.37 W/m2 BKN
20:07 75.6 °F /  24.2 °C 69.7 °F /  20.9 °C 30.03in /  1016.8hPa SSW 3.5mph /  5.6km/h 3.5mph /  5.6km/h 82% 0.00in /  0mm WeatherDisplay:10.37 W/m2 BKN
20:12 75.3 °F /  24.1 °C 69.7 °F /  20.9 °C 30.03in /  1016.8hPa SSW 3.5mph /  5.6km/h 3.5mph /  5.6km/h 83% 0.00in /  0mm WeatherDisplay:10.37 W/m2 BKN
20:18 75.0 °F /  23.9 °C 69.8 °F /  21 °C 30.04in /  1017.2hPa SSW 2.3mph /  3.7km/h 2.3mph /  3.7km/h 84% 0.00in /  0mm WeatherDisplay:10.37 W/m2 BKN
20:23 74.8 °F /  23.8 °C 69.9 °F /  21.1 °C 30.04in /  1017.2hPa SSW 3.5mph /  5.6km/h 3.5mph /  5.6km/h 85% 0.00in /  0mm WeatherDisplay:10.37 W/m2 OVC
20:28 74.7 °F /  23.7 °C 69.8 °F /  21 °C 30.04in /  1017.2hPa SSW 2.3mph /  3.7km/h 2.3mph /  3.7km/h 85% 0.00in /  0mm WeatherDisplay:10.37 W/m2 OVC
20:33 74.5 °F /  23.6 °C 69.7 °F /  20.9 °C 30.04in /  1017.2hPa SSW 1.2mph /  1.9km/h 1.2mph /  1.9km/h 85% 0.00in /  0mm WeatherDisplay:10.37 W/m2 OVC
20:38 74.3 °F /  23.5 °C 69.5 °F /  20.8 °C 30.04in /  1017.2hPa Calm     85% 0.00in /  0mm WeatherDisplay:10.37 W/m2 OVC
20:43 74.1 °F /  23.4 °C 69.6 °F /  20.9 °C 30.03in /  1016.8hPa SSW 1.2mph /  1.9km/h 1.2mph /  1.9km/h 86% 0.00in /  0mm WeatherDisplay:10.37 W/m2 OVC
20:48 73.9 °F /  23.3 °C 69.4 °F /  20.8 °C 30.04in /  1017.2hPa Calm     86% 0.00in /  0mm WeatherDisplay:10.37 W/m2 OVC
20:53 73.8 °F /  23.2 °C 69.3 °F /  20.7 °C 30.04in /  1017.2hPa Calm     86% 0.00in /  0mm WeatherDisplay:10.37 W/m2 OVC
20:58 73.7 °F /  23.2 °C 69.5 °F /  20.8 °C 30.03in /  1016.8hPa Calm     87% 0.00in /  0mm WeatherDisplay:10.37 W/m2 OVC
21:03 73.5 °F /  23.1 °C 69.4 °F /  20.8 °C 30.03in /  1016.8hPa Calm     87% 0.00in /  0mm WeatherDisplay:10.37 W/m2 OVC
21:08 73.4 °F /  23 °C 69.6 °F /  20.9 °C 30.03in /  1016.8hPa Calm     88% 0.00in /  0mm WeatherDisplay:10.37 W/m2 OVC
21:13 73.2 °F /  22.9 °C 69.4 °F /  20.8 °C 30.03in /  1016.8hPa Calm     88% 0.00in /  0mm WeatherDisplay:10.37 W/m2 OVC
21:18 73.1 °F /  22.8 °C 69.3 °F /  20.7 °C 30.04in /  1017.2hPa Calm     88% 0.00in /  0mm WeatherDisplay:10.37 W/m2 OVC
21:23 73.0 °F /  22.8 °C 69.2 °F /  20.7 °C 30.04in /  1017.2hPa Calm     88% 0.00in /  0mm WeatherDisplay:10.37 W/m2 OVC
21:28 73.0 °F /  22.8 °C 69.2 °F /  20.7 °C 30.04in /  1017.2hPa SSW 1.2mph /  1.9km/h   88% 0.00in /  0mm WeatherDisplay:10.37 W/m2 OVC
21:33 72.9 °F /  22.7 °C 69.4 °F /  20.8 °C 30.04in /  1017.2hPa Calm     89% 0.00in /  0mm WeatherDisplay:10.37 W/m2 OVC
21:38 72.8 °F /  22.7 °C 69.3 °F /  20.7 °C 30.04in /  1017.2hPa Calm     89% 0.00in /  0mm WeatherDisplay:10.37 W/m2 OVC
21:43 72.7 °F /  22.6 °C 68.9 °F /  20.5 °C 30.05in /  1017.5hPa Calm     88% 0.00in /  0mm WeatherDisplay:10.37 W/m2 OVC
21:48 72.6 °F /  22.6 °C 69.1 °F /  20.6 °C 30.05in /  1017.5hPa Calm     89% 0.00in /  0mm WeatherDisplay:10.37 W/m2 OVC
21:53 72.6 °F /  22.6 °C 69.1 °F /  20.6 °C 30.05in /  1017.5hPa Calm     89% 0.00in /  0mm WeatherDisplay:10.37 W/m2 OVC
21:58 72.5 °F /  22.5 °C 69.0 °F /  20.6 °C 30.05in /  1017.5hPa Calm     89% 0.00in /  0mm WeatherDisplay:10.37 W/m2 OVC
22:03 72.4 °F /  22.4 °C 68.9 °F /  20.5 °C 30.05in /  1017.5hPa SSW 1.2mph /  1.9km/h 1.2mph /  1.9km/h 89% 0.00in /  0mm WeatherDisplay:10.37 W/m2 OVC
22:08 72.3 °F /  22.4 °C 68.8 °F /  20.4 °C 30.05in /  1017.5hPa Calm     89% 0.00in /  0mm WeatherDisplay:10.37 W/m2 OVC
22:13 72.3 °F /  22.4 °C 68.8 °F /  20.4 °C 30.06in /  1017.8hPa Calm     89% 0.00in /  0mm WeatherDisplay:10.37 W/m2 OVC
22:18 72.2 °F /  22.3 °C 68.7 °F /  20.4 °C 30.05in /  1017.5hPa Calm     89% 0.00in /  0mm WeatherDisplay:10.37 W/m2 OVC
22:23 72.1 °F /  22.3 °C 69.0 °F /  20.6 °C 30.06in /  1017.8hPa Calm     90% 0.00in /  0mm WeatherDisplay:10.37 W/m2 OVC
22:28 72.0 °F /  22.2 °C 68.9 °F /  20.5 °C 30.05in /  1017.5hPa SSW 1.2mph /  1.9km/h 1.2mph /  1.9km/h 90% 0.00in /  0mm WeatherDisplay:10.37 W/m2 OVC
22:33 71.9 °F /  22.2 °C 68.8 °F /  20.4 °C 30.05in /  1017.5hPa SSW 2.3mph /  3.7km/h 2.3mph /  3.7km/h 90% 0.00in /  0mm WeatherDisplay:10.37 W/m2 OVC
22:38 71.8 °F /  22.1 °C 68.7 °F /  20.4 °C 30.05in /  1017.5hPa SSW 2.3mph /  3.7km/h 2.3mph /  3.7km/h 90% 0.00in /  0mm WeatherDisplay:10.37 W/m2 OVC
22:43 71.6 °F /  22 °C 68.5 °F /  20.3 °C 30.06in /  1017.8hPa SSW 1.2mph /  1.9km/h 1.2mph /  1.9km/h 90% 0.00in /  0mm WeatherDisplay:10.37 W/m2 OVC
22:48 71.5 °F /  21.9 °C 68.7 °F /  20.4 °C 30.05in /  1017.5hPa Calm     91% 0.00in /  0mm WeatherDisplay:10.37 W/m2 OVC
22:53 71.3 °F /  21.8 °C 68.5 °F /  20.3 °C 30.06in /  1017.8hPa Calm     91% 0.00in /  0mm WeatherDisplay:10.37 W/m2 OVC
22:58 71.2 °F /  21.8 °C 68.4 °F /  20.2 °C 30.06in /  1017.8hPa Calm     91% 0.00in /  0mm WeatherDisplay:10.37 W/m2 OVC
23:03 71.2 °F /  21.8 °C 68.4 °F /  20.2 °C 30.06in /  1017.8hPa Calm     91% 0.00in /  0mm WeatherDisplay:10.37 W/m2 OVC
23:08 71.1 °F /  21.7 °C 68.3 °F /  20.2 °C 30.06in /  1017.8hPa Calm     91% 0.00in /  0mm WeatherDisplay:10.37 W/m2 OVC
23:14 71.1 °F /  21.7 °C 68.3 °F /  20.2 °C 30.06in /  1017.8hPa Calm   0.1mph /  0.2km/h 91% 0.00in /  0mm WeatherDisplay:10.37 W/m2 OVC
23:19 71.1 °F /  21.7 °C 68.3 °F /  20.2 °C 30.06in /  1017.8hPa SSW 1.2mph /  1.9km/h 1.2mph /  1.9km/h 91% 0.00in /  0mm WeatherDisplay:10.37 W/m2 OVC
23:24 71.1 °F /  21.7 °C 68.3 °F /  20.2 °C 30.06in /  1017.8hPa Calm     91% 0.00in /  0mm WeatherDisplay:10.37 W/m2 OVC
23:28 71.0 °F /  21.7 °C 68.2 °F /  20.1 °C 30.06in /  1017.8hPa SSW 1.2mph /  1.9km/h 1.2mph /  1.9km/h 91% 0.00in /  0mm WeatherDisplay:10.37 W/m2 OVC
23:29 71.0 °F /  21.7 °C 68.2 °F /  20.1 °C 29.94in /  1013.8hPa SSW 1.2mph /  1.9km/h   91% 0.00in /  0mm WeatherDisplay:10.37 W/m2 OVC
23:33 71.0 °F /  21.7 °C 68.2 °F /  20.1 °C 30.06in /  1017.8hPa Calm     91% 0.00in /  0mm WeatherDisplay:10.37 W/m2 OVC
23:38 70.9 °F /  21.6 °C 68.1 °F /  20.1 °C 30.06in /  1017.8hPa Calm     91% 0.00in /  0mm WeatherDisplay:10.37 W/m2 OVC
23:43 70.9 °F /  21.6 °C 68.4 °F /  20.2 °C 30.06in /  1017.8hPa SSW 1.0mph /  1.6km/h 1.0mph /  1.6km/h 92% 0.00in /  0mm WeatherDisplay:10.37 W/m2 OVC
23:48 70.8 °F /  21.6 °C 68.3 °F /  20.2 °C 30.06in /  1017.8hPa Calm     92% 0.00in /  0mm WeatherDisplay:10.37 W/m2 OVC
23:53 70.7 °F /  21.5 °C 68.2 °F /  20.1 °C 30.06in /  1017.8hPa SSW 1.0mph /  1.6km/h 1.0mph /  1.6km/h 92% 0.00in /  0mm WeatherDisplay:10.37 W/m2 OVC
23:58 70.7 °F /  21.5 °C 68.2 °F /  20.1 °C 30.06in /  1017.8hPa SSW 1.0mph /  1.6km/h 1.0mph /  1.6km/h 92% 0.00in /  0mm WeatherDisplay:10.37 W/m2 OVC
Smyth Weather
Compliments of Weather Underground - 3.25 mb